Terminal Aerodrome Forecast
Issued by NWS Northern Indiana

Home | Current Version | Previous Version | Text Only | Print | Product List | Glossary On
Versions: 1 2 3 4 5 6 7 8 9 10 11 12 13
000
FTUS43 KIWX 071120
TAFFWA
TAF
KFWA 071120Z 0712/0812 22012KT P6SM OVC015
     FM071400 23014KT 4SM SHRA VCTS BKN015CB
     FM071800 33010KT 2SM RA BR OVC008
     FM072200 33012G18KT 5SM -SHRA OVC008
     FM080400 02007KT P6SM BKN035=

USA.gov is the U.S. government's official web portal to all federal, state and local government web resources and services.